Lake Ronkonkoma, New York
Current Conditions -  °F | °C
As of 6:56 AM on Wednesday 28 Jan 2015 (Local Time) from KISP Reporting Station
Broken Clouds Broken Clouds  
Wind Chill: -1°   Ceiling: 11000
Heat Index: 18°   Visibility: 9mi
Dew Point:   Wind: 28mph
Humidity: 57%   Direction: 340°NNW
Pressure: 29.91"   Gusts: 37mph
Location:  40.8149°N, 73.1229°W
Report Text: KISP 281156Z 34024G32KT 9SM R06/6000VP6000FT BKN110 M08/M15 A2991 RMK AO2 PK WND 33032/1153 SLP129 4/024 70026 T10781150 11078 21089 53017 $
Loading
Personal Weather Stations






























Interactive Weather Map New forecast layout! Learn more

10-Day Weather Forecast

Advertisements
Track Severe Weather on mobile